sensor_id;sensor_type;location;lat;lon;timestamp;P1;durP1;ratioP1;P2;durP2;ratioP2
15748;SDS011;7976;52.526;13.326;2022-10-26T00:01:05;15.27;;;6.10;;
15748;SDS011;7976;52.526;13.326;2022-10-26T00:03:35;14.98;;;6.10;;
15748;SDS011;7976;52.526;13.326;2022-10-26T00:06:04;16.45;;;7.47;;
15748;SDS011;7976;52.526;13.326;2022-10-26T00:08:34;13.95;;;5.97;;
15748;SDS011;7976;52.526;13.326;2022-10-26T00:11:01;12.93;;;5.78;;
15748;SDS011;7976;52.526;13.326;2022-10-26T00:13:29;17.60;;;6.30;;
15748;SDS011;7976;52.526;13.326;2022-10-26T00:15:57;13.80;;;6.32;;
15748;SDS011;7976;52.526;13.326;2022-10-26T00:18:24;13.73;;;6.03;;
15748;SDS011;7976;52.526;13.326;2022-10-26T00:20:51;17.38;;;6.15;;
15748;SDS011;7976;52.526;13.326;2022-10-26T00:23:19;15.85;;;7.28;;
15748;SDS011;7976;52.526;13.326;2022-10-26T00:25:52;14.15;;;6.70;;
15748;SDS011;7976;52.526;13.326;2022-10-26T00:28:19;14.75;;;6.10;;
15748;SDS011;7976;52.526;13.326;2022-10-26T00:30:48;17.60;;;7.13;;
15748;SDS011;7976;52.526;13.326;2022-10-26T00:33:15;14.82;;;6.55;;
15748;SDS011;7976;52.526;13.326;2022-10-26T00:35:45;16.95;;;6.82;;
15748;SDS011;7976;52.526;13.326;2022-10-26T00:38:14;13.15;;;5.82;;
15748;SDS011;7976;52.526;13.326;2022-10-26T00:40:40;19.42;;;6.35;;
15748;SDS011;7976;52.526;13.326;2022-10-26T00:43:10;15.00;;;5.97;;
15748;SDS011;7976;52.526;13.326;2022-10-26T00:45:41;16.45;;;5.97;;
15748;SDS011;7976;52.526;13.326;2022-10-26T00:48:12;13.57;;;6.22;;
15748;SDS011;7976;52.526;13.326;2022-10-26T00:50:46;14.60;;;6.13;;
15748;SDS011;7976;52.526;13.326;2022-10-26T00:53:14;14.52;;;6.60;;
15748;SDS011;7976;52.526;13.326;2022-10-26T00:55:43;13.43;;;5.97;;
15748;SDS011;7976;52.526;13.326;2022-10-26T00:58:13;15.15;;;6.47;;
15748;SDS011;7976;52.526;13.326;2022-10-26T01:00:43;14.25;;;5.90;;
15748;SDS011;7976;52.526;13.326;2022-10-26T01:03:13;16.23;;;6.57;;
15748;SDS011;7976;52.526;13.326;2022-10-26T01:05:42;15.35;;;6.50;;
15748;SDS011;7976;52.526;13.326;2022-10-26T01:08:12;16.73;;;6.38;;
15748;SDS011;7976;52.526;13.326;2022-10-26T01:10:41;14.07;;;7.10;;
15748;SDS011;7976;52.526;13.326;2022-10-26T01:13:09;13.80;;;6.43;;
15748;SDS011;7976;52.526;13.326;2022-10-26T01:15:41;15.57;;;6.00;;
15748;SDS011;7976;52.526;13.326;2022-10-26T01:18:19;17.35;;;7.35;;
15748;SDS011;7976;52.526;13.326;2022-10-26T01:21:05;14.82;;;6.70;;
15748;SDS011;7976;52.526;13.326;2022-10-26T01:32:50;29.15;;;11.65;;
15748;SDS011;7976;52.526;13.326;2022-10-26T01:35:49;23.10;;;9.23;;
15748;SDS011;7976;52.526;13.326;2022-10-26T01:38:27;21.02;;;7.80;;
15748;SDS011;7976;52.526;13.326;2022-10-26T01:41:05;20.35;;;7.53;;
15748;SDS011;7976;52.526;13.326;2022-10-26T01:43:39;18.85;;;7.70;;
15748;SDS011;7976;52.526;13.326;2022-10-26T01:46:12;15.52;;;6.88;;
15748;SDS011;7976;52.526;13.326;2022-10-26T01:48:42;15.02;;;6.85;;
15748;SDS011;7976;52.526;13.326;2022-10-26T01:51:10;19.35;;;6.97;;
15748;SDS011;7976;52.526;13.326;2022-10-26T01:53:41;19.10;;;7.15;;
15748;SDS011;7976;52.526;13.326;2022-10-26T01:56:12;15.63;;;6.85;;
15748;SDS011;7976;52.526;13.326;2022-10-26T01:58:51;16.88;;;6.18;;
15748;SDS011;7976;52.526;13.326;2022-10-26T02:05:07;14.40;;;6.20;;
15748;SDS011;7976;52.526;13.326;2022-10-26T02:07:57;16.45;;;6.35;;
15748;SDS011;7976;52.526;13.326;2022-10-26T02:10:42;14.32;;;6.40;;
15748;SDS011;7976;52.526;13.326;2022-10-26T02:13:25;14.00;;;6.32;;
15748;SDS011;7976;52.526;13.326;2022-10-26T02:16:04;13.10;;;6.15;;
15748;SDS011;7976;52.526;13.326;2022-10-26T02:18:47;16.73;;;6.55;;
15748;SDS011;7976;52.526;13.326;2022-10-26T02:21:27;14.52;;;6.90;;
15748;SDS011;7976;52.526;13.326;2022-10-26T02:24:02;12.55;;;5.63;;
15748;SDS011;7976;52.526;13.326;2022-10-26T02:26:33;17.10;;;6.40;;
15748;SDS011;7976;52.526;13.326;2022-10-26T02:29:06;14.35;;;6.38;;
15748;SDS011;7976;52.526;13.326;2022-10-26T02:31:37;14.55;;;6.07;;
15748;SDS011;7976;52.526;13.326;2022-10-26T02:34:09;15.07;;;6.40;;
15748;SDS011;7976;52.526;13.326;2022-10-26T02:36:41;17.35;;;6.35;;
15748;SDS011;7976;52.526;13.326;2022-10-26T02:39:12;16.02;;;6.00;;
15748;SDS011;7976;52.526;13.326;2022-10-26T02:41:42;14.30;;;6.38;;
15748;SDS011;7976;52.526;13.326;2022-10-26T02:44:13;15.32;;;6.38;;
15748;SDS011;7976;52.526;13.326;2022-10-26T02:46:48;13.05;;;6.05;;
15748;SDS011;7976;52.526;13.326;2022-10-26T02:49:19;14.60;;;6.30;;
15748;SDS011;7976;52.526;13.326;2022-10-26T02:51:48;14.38;;;6.25;;
15748;SDS011;7976;52.526;13.326;2022-10-26T02:54:24;13.40;;;6.25;;
15748;SDS011;7976;52.526;13.326;2022-10-26T02:56:58;19.15;;;6.63;;
15748;SDS011;7976;52.526;13.326;2022-10-26T02:59:31;12.40;;;5.55;;
15748;SDS011;7976;52.526;13.326;2022-10-26T03:02:03;14.02;;;6.22;;
15748;SDS011;7976;52.526;13.326;2022-10-26T03:04:32;13.35;;;6.28;;
15748;SDS011;7976;52.526;13.326;2022-10-26T03:07:01;13.93;;;6.20;;
15748;SDS011;7976;52.526;13.326;2022-10-26T03:09:28;16.25;;;6.80;;
15748;SDS011;7976;52.526;13.326;2022-10-26T03:11:55;13.73;;;5.75;;
15748;SDS011;7976;52.526;13.326;2022-10-26T03:14:22;16.13;;;6.32;;
15748;SDS011;7976;52.526;13.326;2022-10-26T03:16:48;13.45;;;6.28;;
15748;SDS011;7976;52.526;13.326;2022-10-26T03:19:15;13.88;;;6.55;;
15748;SDS011;7976;52.526;13.326;2022-10-26T03:21:44;12.45;;;5.70;;
15748;SDS011;7976;52.526;13.326;2022-10-26T03:24:11;13.57;;;5.80;;
15748;SDS011;7976;52.526;13.326;2022-10-26T03:26:37;12.90;;;5.82;;
15748;SDS011;7976;52.526;13.326;2022-10-26T03:29:04;14.48;;;5.78;;
15748;SDS011;7976;52.526;13.326;2022-10-26T03:31:33;18.38;;;6.05;;
15748;SDS011;7976;52.526;13.326;2022-10-26T03:34:00;14.65;;;6.07;;
15748;SDS011;7976;52.526;13.326;2022-10-26T03:36:27;16.63;;;5.65;;
15748;SDS011;7976;52.526;13.326;2022-10-26T03:38:55;14.20;;;6.00;;
15748;SDS011;7976;52.526;13.326;2022-10-26T03:41:22;15.48;;;5.88;;
15748;SDS011;7976;52.526;13.326;2022-10-26T03:43:49;12.77;;;5.63;;
15748;SDS011;7976;52.526;13.326;2022-10-26T03:46:15;16.25;;;5.47;;
15748;SDS011;7976;52.526;13.326;2022-10-26T03:48:42;13.90;;;6.18;;
15748;SDS011;7976;52.526;13.326;2022-10-26T03:51:09;12.05;;;5.55;;
15748;SDS011;7976;52.526;13.326;2022-10-26T03:53:36;13.13;;;5.43;;
15748;SDS011;7976;52.526;13.326;2022-10-26T03:56:04;11.57;;;4.97;;
15748;SDS011;7976;52.526;13.326;2022-10-26T03:58:32;13.43;;;5.63;;
15748;SDS011;7976;52.526;13.326;2022-10-26T04:00:59;13.55;;;5.20;;
15748;SDS011;7976;52.526;13.326;2022-10-26T04:03:26;12.35;;;4.90;;
15748;SDS011;7976;52.526;13.326;2022-10-26T04:05:52;14.00;;;5.72;;
15748;SDS011;7976;52.526;13.326;2022-10-26T04:08:19;13.43;;;5.50;;
15748;SDS011;7976;52.526;13.326;2022-10-26T04:10:46;14.95;;;5.57;;
15748;SDS011;7976;52.526;13.326;2022-10-26T04:13:14;11.63;;;5.65;;
15748;SDS011;7976;52.526;13.326;2022-10-26T04:15:41;14.23;;;5.85;;
15748;SDS011;7976;52.526;13.326;2022-10-26T04:18:08;17.52;;;5.47;;
15748;SDS011;7976;52.526;13.326;2022-10-26T04:20:37;13.82;;;5.60;;
15748;SDS011;7976;52.526;13.326;2022-10-26T04:23:06;11.35;;;4.95;;
15748;SDS011;7976;52.526;13.326;2022-10-26T04:25:37;12.15;;;5.47;;
15748;SDS011;7976;52.526;13.326;2022-10-26T04:28:04;13.77;;;5.70;;
15748;SDS011;7976;52.526;13.326;2022-10-26T04:30:34;11.38;;;5.07;;
15748;SDS011;7976;52.526;13.326;2022-10-26T04:33:02;12.32;;;5.25;;
15748;SDS011;7976;52.526;13.326;2022-10-26T04:35:30;12.20;;;5.25;;
15748;SDS011;7976;52.526;13.326;2022-10-26T04:37:58;15.60;;;5.38;;
15748;SDS011;7976;52.526;13.326;2022-10-26T04:40:26;15.23;;;5.45;;
15748;SDS011;7976;52.526;13.326;2022-10-26T04:42:54;13.30;;;5.78;;
15748;SDS011;7976;52.526;13.326;2022-10-26T04:45:21;14.35;;;5.93;;
15748;SDS011;7976;52.526;13.326;2022-10-26T04:47:58;15.40;;;6.07;;
15748;SDS011;7976;52.526;13.326;2022-10-26T04:50:27;14.43;;;5.70;;
15748;SDS011;7976;52.526;13.326;2022-10-26T04:52:54;12.15;;;5.20;;
15748;SDS011;7976;52.526;13.326;2022-10-26T04:55:21;14.00;;;5.65;;
15748;SDS011;7976;52.526;13.326;2022-10-26T04:57:48;16.30;;;6.07;;
15748;SDS011;7976;52.526;13.326;2022-10-26T05:00:15;13.07;;;5.40;;
15748;SDS011;7976;52.526;13.326;2022-10-26T05:02:42;14.70;;;5.38;;
15748;SDS011;7976;52.526;13.326;2022-10-26T05:05:10;16.52;;;7.30;;
15748;SDS011;7976;52.526;13.326;2022-10-26T05:07:37;15.98;;;5.93;;
15748;SDS011;7976;52.526;13.326;2022-10-26T05:10:04;14.98;;;6.38;;
15748;SDS011;7976;52.526;13.326;2022-10-26T05:12:32;13.85;;;5.97;;
15748;SDS011;7976;52.526;13.326;2022-10-26T05:14:59;14.07;;;5.72;;
15748;SDS011;7976;52.526;13.326;2022-10-26T05:17:25;15.25;;;6.05;;
15748;SDS011;7976;52.526;13.326;2022-10-26T05:19:53;16.27;;;6.72;;
15748;SDS011;7976;52.526;13.326;2022-10-26T05:22:23;14.25;;;6.30;;
15748;SDS011;7976;52.526;13.326;2022-10-26T05:24:50;16.98;;;6.50;;
15748;SDS011;7976;52.526;13.326;2022-10-26T05:27:17;13.48;;;5.93;;
15748;SDS011;7976;52.526;13.326;2022-10-26T05:29:44;14.40;;;6.07;;
15748;SDS011;7976;52.526;13.326;2022-10-26T05:32:11;15.18;;;6.45;;
15748;SDS011;7976;52.526;13.326;2022-10-26T05:34:38;16.70;;;7.10;;
15748;SDS011;7976;52.526;13.326;2022-10-26T05:37:04;16.65;;;6.25;;
15748;SDS011;7976;52.526;13.326;2022-10-26T05:39:33;19.05;;;6.85;;
15748;SDS011;7976;52.526;13.326;2022-10-26T05:41:59;19.20;;;6.50;;
15748;SDS011;7976;52.526;13.326;2022-10-26T05:44:26;15.57;;;6.60;;
15748;SDS011;7976;52.526;13.326;2022-10-26T05:46:53;15.65;;;6.45;;
15748;SDS011;7976;52.526;13.326;2022-10-26T05:49:20;14.68;;;6.75;;
15748;SDS011;7976;52.526;13.326;2022-10-26T05:51:46;17.42;;;6.70;;
15748;SDS011;7976;52.526;13.326;2022-10-26T05:54:13;16.52;;;6.15;;
15748;SDS011;7976;52.526;13.326;2022-10-26T05:56:42;16.92;;;6.60;;
15748;SDS011;7976;52.526;13.326;2022-10-26T05:59:10;13.77;;;6.25;;
15748;SDS011;7976;52.526;13.326;2022-10-26T06:01:49;16.70;;;6.43;;
15748;SDS011;7976;52.526;13.326;2022-10-26T06:04:29;16.77;;;6.65;;
15748;SDS011;7976;52.526;13.326;2022-10-26T06:07:03;13.98;;;6.18;;
15748;SDS011;7976;52.526;13.326;2022-10-26T06:09:37;13.52;;;6.05;;
15748;SDS011;7976;52.526;13.326;2022-10-26T06:12:07;14.90;;;6.63;;
15748;SDS011;7976;52.526;13.326;2022-10-26T06:14:36;13.70;;;6.15;;
15748;SDS011;7976;52.526;13.326;2022-10-26T06:17:07;13.55;;;5.88;;
15748;SDS011;7976;52.526;13.326;2022-10-26T06:19:53;13.70;;;6.03;;
15748;SDS011;7976;52.526;13.326;2022-10-26T06:22:48;19.05;;;6.22;;
15748;SDS011;7976;52.526;13.326;2022-10-26T06:25:33;16.20;;;6.57;;
15748;SDS011;7976;52.526;13.326;2022-10-26T06:28:15;14.18;;;6.13;;
15748;SDS011;7976;52.526;13.326;2022-10-26T06:30:56;13.38;;;6.00;;
15748;SDS011;7976;52.526;13.326;2022-10-26T06:33:23;15.63;;;6.13;;
15748;SDS011;7976;52.526;13.326;2022-10-26T06:35:54;15.95;;;6.00;;
15748;SDS011;7976;52.526;13.326;2022-10-26T06:38:33;18.70;;;6.60;;
15748;SDS011;7976;52.526;13.326;2022-10-26T06:41:03;15.90;;;6.28;;
15748;SDS011;7976;52.526;13.326;2022-10-26T06:43:33;17.60;;;7.28;;
15748;SDS011;7976;52.526;13.326;2022-10-26T06:46:03;16.95;;;6.35;;
15748;SDS011;7976;52.526;13.326;2022-10-26T06:48:48;16.52;;;6.70;;
15748;SDS011;7976;52.526;13.326;2022-10-26T06:51:25;16.63;;;6.15;;
15748;SDS011;7976;52.526;13.326;2022-10-26T06:53:56;15.40;;;6.47;;
15748;SDS011;7976;52.526;13.326;2022-10-26T06:56:33;15.48;;;6.60;;
15748;SDS011;7976;52.526;13.326;2022-10-26T06:59:05;17.40;;;6.97;;
15748;SDS011;7976;52.526;13.326;2022-10-26T07:01:41;16.25;;;6.28;;
15748;SDS011;7976;52.526;13.326;2022-10-26T07:04:08;15.32;;;6.75;;
15748;SDS011;7976;52.526;13.326;2022-10-26T07:06:35;19.83;;;6.28;;
15748;SDS011;7976;52.526;13.326;2022-10-26T07:09:02;15.18;;;6.80;;
15748;SDS011;7976;52.526;13.326;2022-10-26T07:11:29;14.60;;;6.20;;
15748;SDS011;7976;52.526;13.326;2022-10-26T07:13:56;15.38;;;6.50;;
15748;SDS011;7976;52.526;13.326;2022-10-26T07:16:24;14.32;;;6.07;;
15748;SDS011;7976;52.526;13.326;2022-10-26T07:18:51;16.60;;;6.63;;
15748;SDS011;7976;52.526;13.326;2022-10-26T07:21:18;14.70;;;6.95;;
15748;SDS011;7976;52.526;13.326;2022-10-26T07:23:45;17.00;;;6.88;;
15748;SDS011;7976;52.526;13.326;2022-10-26T07:26:12;14.55;;;6.38;;
15748;SDS011;7976;52.526;13.326;2022-10-26T07:28:39;16.33;;;6.97;;
15748;SDS011;7976;52.526;13.326;2022-10-26T07:31:06;18.08;;;6.55;;
15748;SDS011;7976;52.526;13.326;2022-10-26T07:33:35;15.40;;;6.47;;
15748;SDS011;7976;52.526;13.326;2022-10-26T07:36:02;18.80;;;7.30;;
15748;SDS011;7976;52.526;13.326;2022-10-26T07:38:30;18.85;;;7.20;;
15748;SDS011;7976;52.526;13.326;2022-10-26T07:40:57;15.50;;;6.70;;
15748;SDS011;7976;52.526;13.326;2022-10-26T07:43:24;17.75;;;7.35;;
15748;SDS011;7976;52.526;13.326;2022-10-26T07:45:51;15.52;;;6.70;;
15748;SDS011;7976;52.526;13.326;2022-10-26T07:48:17;15.77;;;6.68;;
15748;SDS011;7976;52.526;13.326;2022-10-26T07:50:46;13.82;;;6.40;;
15748;SDS011;7976;52.526;13.326;2022-10-26T07:53:13;14.25;;;6.57;;
15748;SDS011;7976;52.526;13.326;2022-10-26T07:55:40;15.60;;;6.75;;
15748;SDS011;7976;52.526;13.326;2022-10-26T07:58:07;16.80;;;6.85;;
15748;SDS011;7976;52.526;13.326;2022-10-26T08:00:33;14.93;;;6.15;;
15748;SDS011;7976;52.526;13.326;2022-10-26T08:03:00;17.55;;;6.30;;
15748;SDS011;7976;52.526;13.326;2022-10-26T08:05:27;15.30;;;5.88;;
15748;SDS011;7976;52.526;13.326;2022-10-26T08:07:55;20.70;;;8.15;;
15748;SDS011;7976;52.526;13.326;2022-10-26T08:10:22;13.85;;;5.95;;
15748;SDS011;7976;52.526;13.326;2022-10-26T08:12:50;15.63;;;6.60;;
15748;SDS011;7976;52.526;13.326;2022-10-26T08:15:18;13.07;;;6.40;;
15748;SDS011;7976;52.526;13.326;2022-10-26T08:17:45;15.80;;;6.60;;
15748;SDS011;7976;52.526;13.326;2022-10-26T08:20:12;15.93;;;6.40;;
15748;SDS011;7976;52.526;13.326;2022-10-26T08:22:39;16.42;;;6.82;;
15748;SDS011;7976;52.526;13.326;2022-10-26T08:25:10;15.98;;;6.25;;
15748;SDS011;7976;52.526;13.326;2022-10-26T08:27:43;20.15;;;7.28;;
15748;SDS011;7976;52.526;13.326;2022-10-26T08:30:10;19.05;;;6.72;;
15748;SDS011;7976;52.526;13.326;2022-10-26T08:32:37;18.40;;;6.82;;
15748;SDS011;7976;52.526;13.326;2022-10-26T08:35:06;16.95;;;6.55;;
15748;SDS011;7976;52.526;13.326;2022-10-26T08:37:34;13.43;;;6.75;;
15748;SDS011;7976;52.526;13.326;2022-10-26T08:40:01;15.98;;;6.40;;
15748;SDS011;7976;52.526;13.326;2022-10-26T08:42:31;22.08;;;7.32;;
15748;SDS011;7976;52.526;13.326;2022-10-26T08:45:07;16.15;;;6.80;;
15748;SDS011;7976;52.526;13.326;2022-10-26T08:47:48;12.98;;;6.20;;
15748;SDS011;7976;52.526;13.326;2022-10-26T08:50:24;17.63;;;6.82;;
15748;SDS011;7976;52.526;13.326;2022-10-26T08:52:57;15.70;;;6.82;;
15748;SDS011;7976;52.526;13.326;2022-10-26T08:55:37;15.45;;;7.00;;
15748;SDS011;7976;52.526;13.326;2022-10-26T08:58:12;15.40;;;6.63;;
15748;SDS011;7976;52.526;13.326;2022-10-26T09:00:43;12.65;;;6.32;;
15748;SDS011;7976;52.526;13.326;2022-10-26T09:03:15;17.33;;;6.82;;
15748;SDS011;7976;52.526;13.326;2022-10-26T09:05:49;18.23;;;7.45;;
15748;SDS011;7976;52.526;13.326;2022-10-26T09:08:35;17.08;;;7.35;;
15748;SDS011;7976;52.526;13.326;2022-10-26T09:11:18;15.90;;;7.28;;
15748;SDS011;7976;52.526;13.326;2022-10-26T09:14:03;14.43;;;6.18;;
15748;SDS011;7976;52.526;13.326;2022-10-26T09:16:46;14.93;;;6.10;;
15748;SDS011;7976;52.526;13.326;2022-10-26T09:19:33;11.40;;;5.78;;
15748;SDS011;7976;52.526;13.326;2022-10-26T09:22:24;15.25;;;7.13;;
15748;SDS011;7976;52.526;13.326;2022-10-26T09:24:59;14.93;;;6.60;;
15748;SDS011;7976;52.526;13.326;2022-10-26T09:27:39;14.45;;;5.78;;
15748;SDS011;7976;52.526;13.326;2022-10-26T09:30:14;15.25;;;6.82;;
15748;SDS011;7976;52.526;13.326;2022-10-26T09:32:45;13.85;;;5.75;;
15748;SDS011;7976;52.526;13.326;2022-10-26T09:35:16;15.20;;;6.05;;
15748;SDS011;7976;52.526;13.326;2022-10-26T09:37:48;17.10;;;6.90;;
15748;SDS011;7976;52.526;13.326;2022-10-26T09:40:22;15.20;;;6.78;;
15748;SDS011;7976;52.526;13.326;2022-10-26T09:42:56;14.05;;;5.88;;
15748;SDS011;7976;52.526;13.326;2022-10-26T09:45:31;14.75;;;5.35;;
15748;SDS011;7976;52.526;13.326;2022-10-26T09:48:06;16.90;;;6.47;;
15748;SDS011;7976;52.526;13.326;2022-10-26T09:50:42;11.77;;;5.63;;
15748;SDS011;7976;52.526;13.326;2022-10-26T09:53:15;13.35;;;5.70;;
15748;SDS011;7976;52.526;13.326;2022-10-26T09:55:42;15.40;;;6.00;;
15748;SDS011;7976;52.526;13.326;2022-10-26T09:58:14;15.75;;;5.38;;
15748;SDS011;7976;52.526;13.326;2022-10-26T10:00:48;13.60;;;5.25;;
15748;SDS011;7976;52.526;13.326;2022-10-26T10:03:18;17.48;;;6.72;;
15748;SDS011;7976;52.526;13.326;2022-10-26T10:05:50;12.77;;;5.45;;
15748;SDS011;7976;52.526;13.326;2022-10-26T10:08:19;13.35;;;5.47;;
15748;SDS011;7976;52.526;13.326;2022-10-26T10:10:54;13.50;;;4.82;;
15748;SDS011;7976;52.526;13.326;2022-10-26T10:13:25;10.95;;;4.50;;
15748;SDS011;7976;52.526;13.326;2022-10-26T10:15:58;12.85;;;4.82;;
15748;SDS011;7976;52.526;13.326;2022-10-26T10:18:34;12.43;;;4.32;;
15748;SDS011;7976;52.526;13.326;2022-10-26T10:21:02;14.48;;;5.65;;
15748;SDS011;7976;52.526;13.326;2022-10-26T10:23:32;14.65;;;4.82;;
15748;SDS011;7976;52.526;13.326;2022-10-26T10:26:06;11.80;;;4.28;;
15748;SDS011;7976;52.526;13.326;2022-10-26T10:28:36;11.85;;;4.25;;
15748;SDS011;7976;52.526;13.326;2022-10-26T10:31:17;13.52;;;4.32;;
15748;SDS011;7976;52.526;13.326;2022-10-26T10:33:47;11.00;;;3.90;;
15748;SDS011;7976;52.526;13.326;2022-10-26T10:36:15;10.75;;;4.25;;
15748;SDS011;7976;52.526;13.326;2022-10-26T10:38:45;15.23;;;4.35;;
15748;SDS011;7976;52.526;13.326;2022-10-26T10:41:15;11.40;;;4.53;;
15748;SDS011;7976;52.526;13.326;2022-10-26T10:43:47;11.15;;;4.25;;
15748;SDS011;7976;52.526;13.326;2022-10-26T10:46:20;12.30;;;4.80;;
15748;SDS011;7976;52.526;13.326;2022-10-26T10:49:00;12.38;;;4.00;;
15748;SDS011;7976;52.526;13.326;2022-10-26T10:51:34;10.25;;;4.13;;
15748;SDS011;7976;52.526;13.326;2022-10-26T10:54:04;10.70;;;4.22;;
15748;SDS011;7976;52.526;13.326;2022-10-26T10:56:46;12.32;;;5.25;;
15748;SDS011;7976;52.526;13.326;2022-10-26T11:02:36;10.60;;;4.95;;
15748;SDS011;7976;52.526;13.326;2022-10-26T11:05:44;14.52;;;3.92;;
15748;SDS011;7976;52.526;13.326;2022-10-26T11:08:31;10.13;;;4.30;;
15748;SDS011;7976;52.526;13.326;2022-10-26T11:11:07;20.30;;;10.93;;
15748;SDS011;7976;52.526;13.326;2022-10-26T11:13:42;10.23;;;4.50;;
15748;SDS011;7976;52.526;13.326;2022-10-26T11:16:18;16.33;;;4.72;;
15748;SDS011;7976;52.526;13.326;2022-10-26T11:18:51;13.38;;;5.35;;
15748;SDS011;7976;52.526;13.326;2022-10-26T11:21:27;11.73;;;4.97;;
15748;SDS011;7976;52.526;13.326;2022-10-26T11:24:03;12.07;;;4.35;;
15748;SDS011;7976;52.526;13.326;2022-10-26T11:26:41;12.45;;;4.50;;
15748;SDS011;7976;52.526;13.326;2022-10-26T11:32:12;11.40;;;4.15;;
15748;SDS011;7976;52.526;13.326;2022-10-26T11:34:47;12.05;;;4.72;;
15748;SDS011;7976;52.526;13.326;2022-10-26T11:37:23;9.52;;;3.78;;
15748;SDS011;7976;52.526;13.326;2022-10-26T11:40:03;10.55;;;3.92;;
15748;SDS011;7976;52.526;13.326;2022-10-26T11:42:48;11.38;;;4.22;;
15748;SDS011;7976;52.526;13.326;2022-10-26T11:45:27;10.48;;;4.75;;
15748;SDS011;7976;52.526;13.326;2022-10-26T11:48:00;9.80;;;3.90;;
15748;SDS011;7976;52.526;13.326;2022-10-26T11:50:42;10.68;;;4.50;;
15748;SDS011;7976;52.526;13.326;2022-10-26T11:53:15;12.07;;;3.83;;
15748;SDS011;7976;52.526;13.326;2022-10-26T11:55:45;9.60;;;3.85;;
15748;SDS011;7976;52.526;13.326;2022-10-26T11:58:16;10.35;;;4.15;;
15748;SDS011;7976;52.526;13.326;2022-10-26T12:00:44;10.55;;;3.90;;
15748;SDS011;7976;52.526;13.326;2022-10-26T12:03:17;11.93;;;4.30;;
15748;SDS011;7976;52.526;13.326;2022-10-26T12:05:52;10.43;;;3.75;;
15748;SDS011;7976;52.526;13.326;2022-10-26T12:08:20;11.15;;;3.80;;
15748;SDS011;7976;52.526;13.326;2022-10-26T12:10:55;11.30;;;3.70;;
15748;SDS011;7976;52.526;13.326;2022-10-26T12:13:31;9.95;;;3.50;;
15748;SDS011;7976;52.526;13.326;2022-10-26T12:16:08;9.10;;;3.17;;
15748;SDS011;7976;52.526;13.326;2022-10-26T12:18:47;10.35;;;3.08;;
15748;SDS011;7976;52.526;13.326;2022-10-26T12:21:21;8.75;;;3.28;;
15748;SDS011;7976;52.526;13.326;2022-10-26T12:23:54;10.07;;;3.90;;
15748;SDS011;7976;52.526;13.326;2022-10-26T12:35:34;9.55;;;3.30;;
15748;SDS011;7976;52.526;13.326;2022-10-26T12:41:25;9.88;;;3.75;;
15748;SDS011;7976;52.526;13.326;2022-10-26T12:43:54;11.15;;;3.72;;
15748;SDS011;7976;52.526;13.326;2022-10-26T12:52:26;9.07;;;3.00;;
15748;SDS011;7976;52.526;13.326;2022-10-26T12:55:24;8.82;;;3.45;;
15748;SDS011;7976;52.526;13.326;2022-10-26T13:01:44;7.75;;;3.03;;
15748;SDS011;7976;52.526;13.326;2022-10-26T13:08:15;8.48;;;3.05;;
15748;SDS011;7976;52.526;13.326;2022-10-26T13:10:46;21.92;;;8.23;;
15748;SDS011;7976;52.526;13.326;2022-10-26T13:13:29;11.32;;;3.45;;
15748;SDS011;7976;52.526;13.326;2022-10-26T13:16:00;10.90;;;3.53;;
15748;SDS011;7976;52.526;13.326;2022-10-26T13:18:28;9.10;;;2.95;;
15748;SDS011;7976;52.526;13.326;2022-10-26T13:20:58;9.77;;;3.13;;
15748;SDS011;7976;52.526;13.326;2022-10-26T13:23:33;9.60;;;3.28;;
15748;SDS011;7976;52.526;13.326;2022-10-26T13:26:06;12.20;;;3.15;;
15748;SDS011;7976;52.526;13.326;2022-10-26T13:28:44;9.18;;;2.85;;
15748;SDS011;7976;52.526;13.326;2022-10-26T13:34:24;9.77;;;2.78;;
15748;SDS011;7976;52.526;13.326;2022-10-26T13:37:08;10.30;;;2.55;;
15748;SDS011;7976;52.526;13.326;2022-10-26T13:39:44;7.93;;;2.60;;
15748;SDS011;7976;52.526;13.326;2022-10-26T13:42:20;8.25;;;3.10;;
15748;SDS011;7976;52.526;13.326;2022-10-26T13:44:51;9.20;;;2.95;;
15748;SDS011;7976;52.526;13.326;2022-10-26T13:47:24;8.50;;;2.88;;
15748;SDS011;7976;52.526;13.326;2022-10-26T13:50:03;8.45;;;2.65;;
15748;SDS011;7976;52.526;13.326;2022-10-26T13:52:37;9.95;;;3.15;;
15748;SDS011;7976;52.526;13.326;2022-10-26T13:55:12;8.95;;;2.63;;
15748;SDS011;7976;52.526;13.326;2022-10-26T13:57:50;8.85;;;2.60;;
15748;SDS011;7976;52.526;13.326;2022-10-26T14:00:34;8.48;;;2.72;;
15748;SDS011;7976;52.526;13.326;2022-10-26T14:03:12;8.38;;;2.60;;
15748;SDS011;7976;52.526;13.326;2022-10-26T14:05:40;7.50;;;2.47;;
15748;SDS011;7976;52.526;13.326;2022-10-26T14:08:12;10.45;;;3.00;;
15748;SDS011;7976;52.526;13.326;2022-10-26T14:10:44;9.48;;;2.83;;
15748;SDS011;7976;52.526;13.326;2022-10-26T14:13:20;11.18;;;3.95;;
15748;SDS011;7976;52.526;13.326;2022-10-26T14:15:50;11.00;;;3.78;;
15748;SDS011;7976;52.526;13.326;2022-10-26T14:18:22;10.45;;;3.70;;
15748;SDS011;7976;52.526;13.326;2022-10-26T14:20:54;11.18;;;3.92;;
15748;SDS011;7976;52.526;13.326;2022-10-26T14:23:32;13.23;;;3.05;;
15748;SDS011;7976;52.526;13.326;2022-10-26T14:26:01;8.23;;;2.60;;
15748;SDS011;7976;52.526;13.326;2022-10-26T14:28:29;6.90;;;2.10;;
15748;SDS011;7976;52.526;13.326;2022-10-26T14:31:10;9.05;;;2.10;;
15748;SDS011;7976;52.526;13.326;2022-10-26T14:33:39;7.35;;;1.92;;
15748;SDS011;7976;52.526;13.326;2022-10-26T14:36:06;9.02;;;2.25;;
15748;SDS011;7976;52.526;13.326;2022-10-26T14:38:36;9.57;;;2.00;;
15748;SDS011;7976;52.526;13.326;2022-10-26T14:41:14;6.80;;;1.98;;
15748;SDS011;7976;52.526;13.326;2022-10-26T14:43:43;7.57;;;2.03;;
15748;SDS011;7976;52.526;13.326;2022-10-26T14:46:12;9.60;;;2.05;;
15748;SDS011;7976;52.526;13.326;2022-10-26T14:48:50;7.88;;;1.83;;
15748;SDS011;7976;52.526;13.326;2022-10-26T14:51:24;6.25;;;1.80;;
15748;SDS011;7976;52.526;13.326;2022-10-26T14:53:54;7.65;;;2.00;;
15748;SDS011;7976;52.526;13.326;2022-10-26T14:56:29;10.48;;;2.15;;
15748;SDS011;7976;52.526;13.326;2022-10-26T14:59:09;7.03;;;2.00;;
15748;SDS011;7976;52.526;13.326;2022-10-26T15:01:46;8.93;;;2.20;;
15748;SDS011;7976;52.526;13.326;2022-10-26T15:07:07;10.23;;;2.80;;
15748;SDS011;7976;52.526;13.326;2022-10-26T15:09:41;10.88;;;3.17;;
15748;SDS011;7976;52.526;13.326;2022-10-26T15:12:20;12.98;;;3.33;;
15748;SDS011;7976;52.526;13.326;2022-10-26T15:14:54;10.20;;;3.55;;
15748;SDS011;7976;52.526;13.326;2022-10-26T15:17:31;9.82;;;3.40;;
15748;SDS011;7976;52.526;13.326;2022-10-26T15:20:06;8.48;;;3.00;;
15748;SDS011;7976;52.526;13.326;2022-10-26T15:22:41;9.85;;;3.15;;
15748;SDS011;7976;52.526;13.326;2022-10-26T15:25:15;8.73;;;2.80;;
15748;SDS011;7976;52.526;13.326;2022-10-26T15:27:46;10.23;;;3.20;;
15748;SDS011;7976;52.526;13.326;2022-10-26T15:30:22;8.63;;;2.50;;
15748;SDS011;7976;52.526;13.326;2022-10-26T15:32:51;10.38;;;3.53;;
15748;SDS011;7976;52.526;13.326;2022-10-26T15:35:26;10.30;;;3.30;;
15748;SDS011;7976;52.526;13.326;2022-10-26T15:37:57;9.82;;;2.80;;
15748;SDS011;7976;52.526;13.326;2022-10-26T15:40:25;7.80;;;2.50;;
15748;SDS011;7976;52.526;13.326;2022-10-26T15:42:56;9.75;;;2.67;;
15748;SDS011;7976;52.526;13.326;2022-10-26T15:45:26;10.98;;;2.80;;
15748;SDS011;7976;52.526;13.326;2022-10-26T15:47:57;11.45;;;2.83;;
15748;SDS011;7976;52.526;13.326;2022-10-26T15:50:42;8.43;;;2.42;;
15748;SDS011;7976;52.526;13.326;2022-10-26T15:53:11;9.00;;;2.67;;
15748;SDS011;7976;52.526;13.326;2022-10-26T15:55:44;8.18;;;2.50;;